sensor_id;sensor_type;location;lat;lon;timestamp;pressure;altitude;pressure_sealevel;temperature
79148;BMP280;68562;51.600;6.524;2024-03-22T00:00:01;1020.6;;;16.2
79148;BMP280;68562;51.600;6.524;2024-03-22T00:05:00;1020.5;;;16.2
79148;BMP280;68562;51.600;6.524;2024-03-22T00:10:00;1020.4;;;16.3
79148;BMP280;68562;51.600;6.524;2024-03-22T00:15:00;1020.4;;;16.4
79148;BMP280;68562;51.600;6.524;2024-03-22T00:20:00;1020.3;;;16.4
79148;BMP280;68562;51.600;6.524;2024-03-22T00:25:00;1020.2;;;16.3
79148;BMP280;68562;51.600;6.524;2024-03-22T00:30:00;1020.2;;;16.4
79148;BMP280;68562;51.600;6.524;2024-03-22T00:35:00;1020.1;;;16.5
79148;BMP280;68562;51.600;6.524;2024-03-22T00:40:00;1020.0;;;16.5
79148;BMP280;68562;51.600;6.524;2024-03-22T00:45:00;1020.0;;;16.5
79148;BMP280;68562;51.600;6.524;2024-03-22T00:50:00;1019.9;;;16.5
79148;BMP280;68562;51.600;6.524;2024-03-22T00:55:00;1019.8;;;16.5
79148;BMP280;68562;51.600;6.524;2024-03-22T01:00:00;1019.8;;;16.4
79148;BMP280;68562;51.600;6.524;2024-03-22T01:05:00;1019.8;;;16.5
79148;BMP280;68562;51.600;6.524;2024-03-22T01:10:00;1019.7;;;16.5
79148;BMP280;68562;51.600;6.524;2024-03-22T01:15:00;1019.6;;;16.5
79148;BMP280;68562;51.600;6.524;2024-03-22T01:20:00;1019.5;;;16.4
79148;BMP280;68562;51.600;6.524;2024-03-22T01:25:00;1019.3;;;16.5
79148;BMP280;68562;51.600;6.524;2024-03-22T01:30:00;1019.3;;;16.5
79148;BMP280;68562;51.600;6.524;2024-03-22T01:35:00;1019.2;;;16.6
79148;BMP280;68562;51.600;6.524;2024-03-22T01:40:00;1019.1;;;16.6
79148;BMP280;68562;51.600;6.524;2024-03-22T01:45:00;1018.9;;;16.6
79148;BMP280;68562;51.600;6.524;2024-03-22T01:50:01;1019.0;;;16.7
79148;BMP280;68562;51.600;6.524;2024-03-22T01:55:00;1019.1;;;16.8
79148;BMP280;68562;51.600;6.524;2024-03-22T02:00:00;1019.0;;;16.7
79148;BMP280;68562;51.600;6.524;2024-03-22T02:05:11;1018.9;;;16.8
79148;BMP280;68562;51.600;6.524;2024-03-22T02:10:00;1018.7;;;16.6
79148;BMP280;68562;51.600;6.524;2024-03-22T02:15:02;1018.8;;;16.6
79148;BMP280;68562;51.600;6.524;2024-03-22T02:20:01;1018.7;;;16.7
79148;BMP280;68562;51.600;6.524;2024-03-22T02:25:00;1018.6;;;16.6
79148;BMP280;68562;51.600;6.524;2024-03-22T02:30:00;1018.5;;;16.7
79148;BMP280;68562;51.600;6.524;2024-03-22T02:35:00;1018.4;;;16.7
79148;BMP280;68562;51.600;6.524;2024-03-22T02:40:00;1018.4;;;16.7
79148;BMP280;68562;51.600;6.524;2024-03-22T02:45:00;1018.3;;;16.8
79148;BMP280;68562;51.600;6.524;2024-03-22T02:50:00;1018.3;;;16.7
79148;BMP280;68562;51.600;6.524;2024-03-22T02:55:00;1018.3;;;16.8
79148;BMP280;68562;51.600;6.524;2024-03-22T03:00:00;1018.3;;;16.7
79148;BMP280;68562;51.600;6.524;2024-03-22T03:05:00;1018.2;;;16.8
79148;BMP280;68562;51.600;6.524;2024-03-22T03:10:00;1018.2;;;16.7
79148;BMP280;68562;51.600;6.524;2024-03-22T03:15:00;1018.1;;;16.8
79148;BMP280;68562;51.600;6.524;2024-03-22T03:20:00;1018.0;;;16.6
79148;BMP280;68562;51.600;6.524;2024-03-22T03:25:00;1017.9;;;16.6
79148;BMP280;68562;51.600;6.524;2024-03-22T03:30:00;1017.8;;;16.6
79148;BMP280;68562;51.600;6.524;2024-03-22T03:35:00;1017.7;;;16.6
79148;BMP280;68562;51.600;6.524;2024-03-22T03:40:00;1017.7;;;16.5
79148;BMP280;68562;51.600;6.524;2024-03-22T03:45:00;1017.6;;;16.5
79148;BMP280;68562;51.600;6.524;2024-03-22T03:50:00;1017.4;;;16.5
79148;BMP280;68562;51.600;6.524;2024-03-22T03:55:00;1017.4;;;16.6
79148;BMP280;68562;51.600;6.524;2024-03-22T04:00:00;1017.4;;;16.5
79148;BMP280;68562;51.600;6.524;2024-03-22T04:05:00;1017.3;;;16.6
79148;BMP280;68562;51.600;6.524;2024-03-22T04:10:00;1017.2;;;16.6
79148;BMP280;68562;51.600;6.524;2024-03-22T04:15:00;1017.2;;;16.7
79148;BMP280;68562;51.600;6.524;2024-03-22T04:20:00;1017.2;;;16.6
79148;BMP280;68562;51.600;6.524;2024-03-22T04:25:00;1017.1;;;16.4
79148;BMP280;68562;51.600;6.524;2024-03-22T04:30:00;1017.1;;;16.5
79148;BMP280;68562;51.600;6.524;2024-03-22T04:35:00;1017.0;;;16.5
79148;BMP280;68562;51.600;6.524;2024-03-22T04:40:00;1016.9;;;16.4
79148;BMP280;68562;51.600;6.524;2024-03-22T04:45:00;1016.8;;;16.4
79148;BMP280;68562;51.600;6.524;2024-03-22T04:50:00;1016.9;;;16.3
79148;BMP280;68562;51.600;6.524;2024-03-22T04:55:00;1016.9;;;16.2
79148;BMP280;68562;51.600;6.524;2024-03-22T05:00:00;1016.9;;;16.2
79148;BMP280;68562;51.600;6.524;2024-03-22T05:05:00;1017.0;;;16.1
79148;BMP280;68562;51.600;6.524;2024-03-22T05:10:00;1016.9;;;16.2
79148;BMP280;68562;51.600;6.524;2024-03-22T05:15:00;1016.9;;;16.1
79148;BMP280;68562;51.600;6.524;2024-03-22T05:20:00;1016.9;;;16.1
79148;BMP280;68562;51.600;6.524;2024-03-22T05:25:00;1016.8;;;16.2
79148;BMP280;68562;51.600;6.524;2024-03-22T05:30:00;1016.7;;;16.2
79148;BMP280;68562;51.600;6.524;2024-03-22T05:35:00;1016.6;;;16.2
79148;BMP280;68562;51.600;6.524;2024-03-22T05:40:00;1016.6;;;16.2
79148;BMP280;68562;51.600;6.524;2024-03-22T05:45:00;1016.7;;;16.3
79148;BMP280;68562;51.600;6.524;2024-03-22T05:50:00;1016.7;;;16.4
79148;BMP280;68562;51.600;6.524;2024-03-22T05:55:00;1016.7;;;16.2
79148;BMP280;68562;51.600;6.524;2024-03-22T06:00:00;1016.5;;;16.3
79148;BMP280;68562;51.600;6.524;2024-03-22T06:05:00;1016.5;;;16.0
79148;BMP280;68562;51.600;6.524;2024-03-22T06:10:00;1016.5;;;16.2
79148;BMP280;68562;51.600;6.524;2024-03-22T06:15:00;1016.5;;;16.0
79148;BMP280;68562;51.600;6.524;2024-03-22T06:20:00;1016.5;;;16.1
79148;BMP280;68562;51.600;6.524;2024-03-22T06:25:00;1016.5;;;16.1
79148;BMP280;68562;51.600;6.524;2024-03-22T06:30:00;1016.6;;;16.1
79148;BMP280;68562;51.600;6.524;2024-03-22T06:35:00;1016.6;;;16.3
79148;BMP280;68562;51.600;6.524;2024-03-22T06:40:00;1016.7;;;16.5
79148;BMP280;68562;51.600;6.524;2024-03-22T06:45:00;1016.6;;;16.5
79148;BMP280;68562;51.600;6.524;2024-03-22T06:50:00;1016.6;;;16.5
79148;BMP280;68562;51.600;6.524;2024-03-22T06:55:00;1016.5;;;16.5
79148;BMP280;68562;51.600;6.524;2024-03-22T07:00:01;1016.6;;;16.4
79148;BMP280;68562;51.600;6.524;2024-03-22T07:05:00;1016.5;;;16.5
79148;BMP280;68562;51.600;6.524;2024-03-22T07:10:00;1016.5;;;16.5
79148;BMP280;68562;51.600;6.524;2024-03-22T07:15:01;1016.5;;;16.5
79148;BMP280;68562;51.600;6.524;2024-03-22T07:20:00;1016.4;;;16.8
79148;BMP280;68562;51.600;6.524;2024-03-22T07:25:00;1016.4;;;16.8
79148;BMP280;68562;51.600;6.524;2024-03-22T07:30:00;1016.4;;;16.8
79148;BMP280;68562;51.600;6.524;2024-03-22T07:35:00;1016.4;;;16.7
79148;BMP280;68562;51.600;6.524;2024-03-22T07:40:00;1016.4;;;16.7
79148;BMP280;68562;51.600;6.524;2024-03-22T07:45:00;1016.4;;;16.6
79148;BMP280;68562;51.600;6.524;2024-03-22T07:50:00;1016.4;;;16.6
79148;BMP280;68562;51.600;6.524;2024-03-22T07:55:00;1016.4;;;16.7
79148;BMP280;68562;51.600;6.524;2024-03-22T08:00:00;1016.4;;;16.6
79148;BMP280;68562;51.600;6.524;2024-03-22T08:05:00;1016.4;;;16.7
79148;BMP280;68562;51.600;6.524;2024-03-22T08:10:01;1016.4;;;16.7
79148;BMP280;68562;51.600;6.524;2024-03-22T08:15:00;1016.4;;;17.1
79148;BMP280;68562;51.600;6.524;2024-03-22T08:20:00;1016.3;;;17.2
79148;BMP280;68562;51.600;6.524;2024-03-22T08:30:00;1016.4;;;17.3
79148;BMP280;68562;51.600;6.524;2024-03-22T08:35:00;1016.4;;;17.3
79148;BMP280;68562;51.600;6.524;2024-03-22T08:40:00;1016.4;;;17.4
79148;BMP280;68562;51.600;6.524;2024-03-22T08:45:00;1016.2;;;17.4
79148;BMP280;68562;51.600;6.524;2024-03-22T08:55:00;1016.1;;;17.0
79148;BMP280;68562;51.600;6.524;2024-03-22T09:00:00;1016.1;;;17.1
79148;BMP280;68562;51.600;6.524;2024-03-22T09:05:00;1016.0;;;17.0
79148;BMP280;68562;51.600;6.524;2024-03-22T09:10:00;1016.1;;;17.0
79148;BMP280;68562;51.600;6.524;2024-03-22T09:15:00;1016.0;;;17.0
79148;BMP280;68562;51.600;6.524;2024-03-22T09:20:00;1016.0;;;17.0
79148;BMP280;68562;51.600;6.524;2024-03-22T09:25:00;1016.0;;;16.9
79148;BMP280;68562;51.600;6.524;2024-03-22T09:30:00;1015.9;;;16.3
79148;BMP280;68562;51.600;6.524;2024-03-22T09:35:00;1015.8;;;16.2
79148;BMP280;68562;51.600;6.524;2024-03-22T09:40:00;1015.9;;;16.1
79148;BMP280;68562;51.600;6.524;2024-03-22T09:50:01;1015.7;;;16.2
79148;BMP280;68562;51.600;6.524;2024-03-22T09:55:00;1015.8;;;16.2
79148;BMP280;68562;51.600;6.524;2024-03-22T10:00:00;1015.7;;;16.2
79148;BMP280;68562;51.600;6.524;2024-03-22T10:05:00;1015.7;;;16.2
79148;BMP280;68562;51.600;6.524;2024-03-22T10:10:00;1015.7;;;16.2
79148;BMP280;68562;51.600;6.524;2024-03-22T10:15:00;1015.7;;;16.4
79148;BMP280;68562;51.600;6.524;2024-03-22T10:20:04;1015.7;;;16.4
79148;BMP280;68562;51.600;6.524;2024-03-22T10:25:00;1015.6;;;16.2
79148;BMP280;68562;51.600;6.524;2024-03-22T10:30:00;1015.6;;;16.2
79148;BMP280;68562;51.600;6.524;2024-03-22T10:35:02;1015.6;;;16.2
79148;BMP280;68562;51.600;6.524;2024-03-22T10:40:01;1015.5;;;16.2
79148;BMP280;68562;51.600;6.524;2024-03-22T10:45:00;1015.5;;;16.1
79148;BMP280;68562;51.600;6.524;2024-03-22T10:50:04;1015.4;;;16.3
79148;BMP280;68562;51.600;6.524;2024-03-22T10:55:02;1015.5;;;16.6
79148;BMP280;68562;51.600;6.524;2024-03-22T11:00:00;1015.4;;;16.6
79148;BMP280;68562;51.600;6.524;2024-03-22T11:05:00;1015.4;;;16.6
79148;BMP280;68562;51.600;6.524;2024-03-22T11:10:01;1015.5;;;16.5
79148;BMP280;68562;51.600;6.524;2024-03-22T11:15:00;1015.4;;;16.3
79148;BMP280;68562;51.600;6.524;2024-03-22T11:20:00;1015.4;;;16.2
79148;BMP280;68562;51.600;6.524;2024-03-22T11:25:00;1015.4;;;16.2
79148;BMP280;68562;51.600;6.524;2024-03-22T11:30:00;1015.2;;;16.2
79148;BMP280;68562;51.600;6.524;2024-03-22T11:35:00;1015.3;;;16.0
79148;BMP280;68562;51.600;6.524;2024-03-22T11:40:00;1015.3;;;16.0
79148;BMP280;68562;51.600;6.524;2024-03-22T11:45:01;1015.3;;;16.5
79148;BMP280;68562;51.600;6.524;2024-03-22T11:50:01;1015.4;;;16.4
79148;BMP280;68562;51.600;6.524;2024-03-22T11:55:00;1015.3;;;16.4
79148;BMP280;68562;51.600;6.524;2024-03-22T12:00:01;1015.3;;;16.4
79148;BMP280;68562;51.600;6.524;2024-03-22T12:05:00;1015.3;;;16.2
79148;BMP280;68562;51.600;6.524;2024-03-22T12:10:00;1015.2;;;16.2
79148;BMP280;68562;51.600;6.524;2024-03-22T12:15:00;1015.3;;;16.3
79148;BMP280;68562;51.600;6.524;2024-03-22T12:20:01;1015.2;;;16.3
79148;BMP280;68562;51.600;6.524;2024-03-22T12:25:00;1015.1;;;16.2
79148;BMP280;68562;51.600;6.524;2024-03-22T12:30:00;1015.0;;;16.2
79148;BMP280;68562;51.600;6.524;2024-03-22T12:35:00;1014.8;;;16.2
79148;BMP280;68562;51.600;6.524;2024-03-22T12:40:00;1014.7;;;16.1
79148;BMP280;68562;51.600;6.524;2024-03-22T12:45:00;1014.7;;;15.9
79148;BMP280;68562;51.600;6.524;2024-03-22T12:50:00;1014.7;;;15.7
79148;BMP280;68562;51.600;6.524;2024-03-22T12:55:00;1014.7;;;15.7
79148;BMP280;68562;51.600;6.524;2024-03-22T13:00:00;1014.6;;;15.9
79148;BMP280;68562;51.600;6.524;2024-03-22T13:05:00;1014.6;;;15.9
79148;BMP280;68562;51.600;6.524;2024-03-22T13:10:00;1014.5;;;15.6
79148;BMP280;68562;51.600;6.524;2024-03-22T13:15:00;1014.5;;;15.7
79148;BMP280;68562;51.600;6.524;2024-03-22T13:20:00;1014.3;;;15.6
79148;BMP280;68562;51.600;6.524;2024-03-22T13:25:00;1014.2;;;15.7
79148;BMP280;68562;51.600;6.524;2024-03-22T13:30:00;1014.2;;;15.7
79148;BMP280;68562;51.600;6.524;2024-03-22T13:35:00;1014.1;;;15.7
79148;BMP280;68562;51.600;6.524;2024-03-22T13:40:00;1014.1;;;15.6
79148;BMP280;68562;51.600;6.524;2024-03-22T13:45:00;1014.1;;;15.5
79148;BMP280;68562;51.600;6.524;2024-03-22T13:50:00;1014.0;;;15.6
79148;BMP280;68562;51.600;6.524;2024-03-22T13:55:00;1014.0;;;15.6
79148;BMP280;68562;51.600;6.524;2024-03-22T14:00:00;1013.9;;;15.6
79148;BMP280;68562;51.600;6.524;2024-03-22T14:05:00;1013.9;;;15.7
79148;BMP280;68562;51.600;6.524;2024-03-22T14:10:00;1013.8;;;15.2
79148;BMP280;68562;51.600;6.524;2024-03-22T14:15:00;1013.8;;;15.3
79148;BMP280;68562;51.600;6.524;2024-03-22T14:20:00;1013.8;;;15.4
79148;BMP280;68562;51.600;6.524;2024-03-22T14:25:00;1013.7;;;15.5
79148;BMP280;68562;51.600;6.524;2024-03-22T14:30:00;1013.6;;;15.5
79148;BMP280;68562;51.600;6.524;2024-03-22T14:35:00;1013.7;;;15.4
79148;BMP280;68562;51.600;6.524;2024-03-22T14:40:00;1013.6;;;15.4
79148;BMP280;68562;51.600;6.524;2024-03-22T14:45:00;1013.6;;;15.5
79148;BMP280;68562;51.600;6.524;2024-03-22T14:50:00;1013.6;;;15.4
79148;BMP280;68562;51.600;6.524;2024-03-22T14:55:00;1013.5;;;15.3
79148;BMP280;68562;51.600;6.524;2024-03-22T15:00:00;1013.4;;;15.5
79148;BMP280;68562;51.600;6.524;2024-03-22T15:05:00;1013.3;;;15.4
79148;BMP280;68562;51.600;6.524;2024-03-22T15:10:00;1013.2;;;15.2
79148;BMP280;68562;51.600;6.524;2024-03-22T15:15:00;1013.1;;;15.0
79148;BMP280;68562;51.600;6.524;2024-03-22T15:20:00;1013.1;;;15.1
79148;BMP280;68562;51.600;6.524;2024-03-22T15:25:00;1013.1;;;15.2
79148;BMP280;68562;51.600;6.524;2024-03-22T15:30:00;1012.9;;;15.2
79148;BMP280;68562;51.600;6.524;2024-03-22T15:35:00;1012.9;;;15.1
79148;BMP280;68562;51.600;6.524;2024-03-22T15:40:00;1012.8;;;15.0
79148;BMP280;68562;51.600;6.524;2024-03-22T15:45:00;1012.8;;;15.1
79148;BMP280;68562;51.600;6.524;2024-03-22T15:50:00;1012.9;;;14.8
79148;BMP280;68562;51.600;6.524;2024-03-22T15:55:00;1012.8;;;14.8
79148;BMP280;68562;51.600;6.524;2024-03-22T16:00:00;1012.8;;;14.6
79148;BMP280;68562;51.600;6.524;2024-03-22T16:05:00;1012.9;;;14.7
79148;BMP280;68562;51.600;6.524;2024-03-22T16:10:00;1012.8;;;14.8
79148;BMP280;68562;51.600;6.524;2024-03-22T16:15:00;1012.7;;;15.0
79148;BMP280;68562;51.600;6.524;2024-03-22T16:20:01;1012.6;;;14.9
79148;BMP280;68562;51.600;6.524;2024-03-22T16:25:00;1012.6;;;14.9
79148;BMP280;68562;51.600;6.524;2024-03-22T16:30:00;1012.6;;;14.9
79148;BMP280;68562;51.600;6.524;2024-03-22T16:35:00;1012.6;;;14.9
79148;BMP280;68562;51.600;6.524;2024-03-22T16:40:00;1012.6;;;15.0
79148;BMP280;68562;51.600;6.524;2024-03-22T16:45:00;1012.5;;;15.0
79148;BMP280;68562;51.600;6.524;2024-03-22T16:50:00;1012.4;;;14.9
79148;BMP280;68562;51.600;6.524;2024-03-22T16:55:00;1012.4;;;14.9
79148;BMP280;68562;51.600;6.524;2024-03-22T17:00:00;1012.4;;;14.9
79148;BMP280;68562;51.600;6.524;2024-03-22T17:05:00;1012.4;;;14.9
79148;BMP280;68562;51.600;6.524;2024-03-22T17:10:00;1012.4;;;14.9
79148;BMP280;68562;51.600;6.524;2024-03-22T17:15:00;1012.4;;;14.8
79148;BMP280;68562;51.600;6.524;2024-03-22T17:20:00;1012.5;;;14.7
79148;BMP280;68562;51.600;6.524;2024-03-22T17:25:00;1012.5;;;14.6
79148;BMP280;68562;51.600;6.524;2024-03-22T17:30:00;1012.5;;;14.4
79148;BMP280;68562;51.600;6.524;2024-03-22T17:35:00;1012.4;;;14.3
79148;BMP280;68562;51.600;6.524;2024-03-22T17:40:00;1012.4;;;14.2
79148;BMP280;68562;51.600;6.524;2024-03-22T17:45:00;1012.4;;;14.2
79148;BMP280;68562;51.600;6.524;2024-03-22T17:50:00;1012.3;;;14.1
79148;BMP280;68562;51.600;6.524;2024-03-22T17:55:00;1012.3;;;14.0
79148;BMP280;68562;51.600;6.524;2024-03-22T18:00:00;1012.2;;;14.0
79148;BMP280;68562;51.600;6.524;2024-03-22T18:05:00;1012.3;;;14.0
79148;BMP280;68562;51.600;6.524;2024-03-22T18:10:00;1012.3;;;13.9
79148;BMP280;68562;51.600;6.524;2024-03-22T18:15:00;1012.3;;;13.9
79148;BMP280;68562;51.600;6.524;2024-03-22T18:20:00;1012.2;;;13.9
79148;BMP280;68562;51.600;6.524;2024-03-22T18:25:00;1012.1;;;13.8
79148;BMP280;68562;51.600;6.524;2024-03-22T18:30:00;1012.1;;;13.8
79148;BMP280;68562;51.600;6.524;2024-03-22T18:35:00;1012.1;;;13.7
79148;BMP280;68562;51.600;6.524;2024-03-22T18:40:00;1012.1;;;13.7
79148;BMP280;68562;51.600;6.524;2024-03-22T18:45:00;1012.2;;;13.7
79148;BMP280;68562;51.600;6.524;2024-03-22T18:50:00;1012.1;;;13.7
79148;BMP280;68562;51.600;6.524;2024-03-22T18:55:02;1012.1;;;13.6
79148;BMP280;68562;51.600;6.524;2024-03-22T19:00:00;1012.1;;;13.7
79148;BMP280;68562;51.600;6.524;2024-03-22T19:05:00;1012.0;;;13.6
79148;BMP280;68562;51.600;6.524;2024-03-22T19:10:00;1012.0;;;13.6
79148;BMP280;68562;51.600;6.524;2024-03-22T19:15:00;1012.0;;;13.6
79148;BMP280;68562;51.600;6.524;2024-03-22T19:20:00;1011.9;;;13.6
79148;BMP280;68562;51.600;6.524;2024-03-22T19:25:00;1011.8;;;13.6
79148;BMP280;68562;51.600;6.524;2024-03-22T19:30:00;1011.8;;;13.6
79148;BMP280;68562;51.600;6.524;2024-03-22T19:35:00;1011.8;;;13.6
79148;BMP280;68562;51.600;6.524;2024-03-22T19:40:00;1011.7;;;13.6
79148;BMP280;68562;51.600;6.524;2024-03-22T19:45:00;1011.7;;;13.6
79148;BMP280;68562;51.600;6.524;2024-03-22T19:50:00;1011.6;;;13.6
79148;BMP280;68562;51.600;6.524;2024-03-22T19:55:00;1011.6;;;13.4
79148;BMP280;68562;51.600;6.524;2024-03-22T20:00:00;1011.7;;;13.3
79148;BMP280;68562;51.600;6.524;2024-03-22T20:05:00;1011.7;;;13.2
79148;BMP280;68562;51.600;6.524;2024-03-22T20:10:00;1011.7;;;13.1
79148;BMP280;68562;51.600;6.524;2024-03-22T20:15:00;1011.6;;;13.1
79148;BMP280;68562;51.600;6.524;2024-03-22T20:20:00;1011.6;;;13.0
79148;BMP280;68562;51.600;6.524;2024-03-22T20:25:00;1011.5;;;13.0
79148;BMP280;68562;51.600;6.524;2024-03-22T20:30:00;1011.5;;;13.0
79148;BMP280;68562;51.600;6.524;2024-03-22T20:35:00;1011.5;;;13.0
